Swinomish — WC5223 — position and weather

sailwx.info

Track history (hours):
 
Tides and Currents Weather Stations Pressure Air Temp Water Temp Dewpoint Dewpoint Depression Visibility Wind Speed Wind Dir Waves Ship Positions

Swinomish

Owner: DUNLAP TOWING CO, LA CONNER, WA. More information available from US FCC via Universal Licensing System and Coast Guard Vessel Documentation Center.

Last reported at 2015-Apr-27 21:28 UTC. Time now 2015-Apr-27 22:11 UTC.
Position N 48°08' W 122°52'.

Length 15 m; draft 3.5 m.

Type: Tug. MMSI: 366972050.

Date/timePositionNaut miles runAvg speedWind from/ knotsBaromVisibWave heightAir tempDewpointWater temp
2015-Apr-27 21:28N 48°08' W 122°52'3 2.2
2015-Apr-27 20:13N 48°09' W 122°48'3 1.6
2015-Apr-27 18:29N 48°07' W 122°44'1 0.5
2015-Apr-27 15:32N 48°06' W 122°45'2 1.6
2015-Apr-27 14:28N 48°07' W 122°43'6 3.3
2015-Apr-27 12:33N 48°01' W 122°39'4 4.5
2015-Apr-27 11:33N 47°58' W 122°36'4 3.5
2015-Apr-27 10:33N 47°55' W 122°32'3 2.9
2015-Apr-27 09:33N 47°54' W 122°28'3 2.7
2015-Apr-27 08:33N 47°52' W 122°25'2 2.3
2015-Apr-27 07:33N 47°51' W 122°22'1 1.4
2015-Apr-27 06:33N 47°52' W 122°21'1 1.3
2015-Apr-27 05:33N 47°53' W 122°20'1 1.4
2015-Apr-27 04:33N 47°55' W 122°21'1 1.5
2015-Apr-27 03:33N 47°56' W 122°20'2 1.6
2015-Apr-27 02:33N 47°58' W 122°19'2 1.7
2015-Apr-27 01:33N 47°58' W 122°17'2 1.5
2015-Apr-27 00:33N 47°59' W 122°14'1 1.0
2015-Apr-26 23:33N 47°59' W 122°13'0 0.0
2015-Apr-26 22:33N 47°59' W 122°13'0 0.2
2015-Apr-26 21:34N 47°59' W 122°13'0 0.0
2015-Apr-26 20:32N 47°59' W 122°13'0 0.3
2015-Apr-26 19:33N 47°59' W 122°14'1 1.0
2015-Apr-26 18:33N 47°58' W 122°15'1 1.1
2015-Apr-26 17:33N 47°58' W 122°16'1 1.2
2015-Apr-26 16:33N 47°59' W 122°18'1 1.2
2015-Apr-26 15:31N 47°60' W 122°20'1 1.4
2015-Apr-26 14:33N 48°01' W 122°21'1 1.3
2015-Apr-26 13:32N 48°02' W 122°22'3 1.4
2015-Apr-26 11:33N 48°04' W 122°25'2 1.6
2015-Apr-26 10:26N 48°05' W 122°27'11 1.6
2015-Apr-26 03:22N 48°15' W 122°34'1 1.8
2015-Apr-26 02:33N 48°16' W 122°32'2 1.8
2015-Apr-26 01:33N 48°17' W 122°31'2 2.0
2015-Apr-26 00:33N 48°19' W 122°31'4 3.2
2015-Apr-25 23:14N 48°23' W 122°34'2 1.8
2015-Apr-25 22:20N 48°24' W 122°35'2 1.7
2015-Apr-25 21:23N 48°26' W 122°34'0 0.3
2015-Apr-25 20:31N 48°26' W 122°34'9 9.4
2015-Apr-25 19:32N 48°17' W 122°31'10 9.3
2015-Apr-25 18:27N 48°07' W 122°30'1110.4
2015-Apr-25 17:24N 48°00' W 122°17'3 3.4
2015-Apr-25 16:34N 47°59' W 122°14'3 2.9
2015-Apr-25 15:33N 47°58' W 122°18'3 2.9
2015-Apr-25 14:33N 47°56' W 122°20'3 2.8
2015-Apr-25 13:33N 47°53' W 122°22'3 3.5
2015-Apr-25 12:34N 47°50' W 122°24'4 4.3
2015-Apr-25 11:33N 47°46' W 122°25'4 4.0
2015-Apr-25 10:33N 47°42' W 122°27'3 3.2
2015-Apr-25 09:33N 47°39' W 122°29'4 4.2
2015-Apr-25 08:34N 47°35' W 122°28'4 3.8
2015-Apr-25 07:33N 47°31' W 122°29'4 3.9
2015-Apr-25 06:33N 47°28' W 122°31'4 4.0
2015-Apr-25 05:33N 47°24' W 122°32'3 3.5
2015-Apr-25 04:33N 47°20' W 122°32'4 3.9
2015-Apr-25 03:33N 47°18' W 122°27'2 1.6
2015-Apr-25 02:32N 47°17' W 122°25'0 0.0
2015-Apr-25 01:33N 47°17' W 122°25'2 2.1
2015-Apr-25 00:34N 47°18' W 122°28'3 2.7
2015-Apr-24 23:33N 47°19' W 122°32'3 3.2
2015-Apr-24 22:34N 47°16' W 122°33'5 4.6
2015-Apr-24 21:30N 47°12' W 122°37'7 3.3
2015-Apr-24 19:21N 47°10' W 122°47'8 1.1
2015-Apr-24 12:21N 47°04' W 122°55'1 0.4
2015-Apr-24 10:09N 47°05' W 122°55'4 6.4
2015-Apr-24 09:33N 47°09' W 122°55'1 0.4
2015-Apr-24 06:16N 47°10' W 122°55'14 8.1
2015-Apr-24 04:33N 47°14' W 122°35'1110.9
2015-Apr-24 03:33N 47°25' W 122°32'1010.1
2015-Apr-24 02:34N 47°34' W 122°28'1110.7
2015-Apr-24 01:34N 47°45' W 122°25'1010.4
2015-Apr-24 00:33N 47°55' W 122°21'9 9.1
2015-Apr-23 23:31N 48°04' W 122°26'13 9.2
2015-Apr-23 22:04N 48°17' W 122°31'910.4
2015-Apr-23 21:12N 48°26' W 122°35'1 0.8
2015-Apr-23 20:30N 48°26' W 122°34'0 0.2
2015-Apr-23 18:33N 48°26' W 122°34'0 0.4
2015-Apr-23 17:34N 48°26' W 122°34'0 0.0
2015-Apr-23 16:28N 48°26' W 122°34'0 0.0
2015-Apr-23 15:30N 48°26' W 122°34'0 0.0
2015-Apr-23 14:27N 48°26' W 122°34'0 0.0
2015-Apr-23 13:33N 48°26' W 122°34'0 0.0
2015-Apr-23 12:34N 48°26' W 122°34'0 0.1
2015-Apr-23 11:29N 48°26' W 122°34'0 0.1
2015-Apr-23 10:33N 48°26' W 122°34'0 0.0
2015-Apr-23 09:22N 48°26' W 122°34'0 0.0
2015-Apr-23 08:33N 48°26' W 122°34'0 0.2
2015-Apr-23 07:31N 48°26' W 122°34'4 2.1
2015-Apr-23 05:32N 48°22' W 122°32'4 1.1
2015-Apr-23 01:32N 48°26' W 122°34'0 0.0
2015-Apr-23 00:19N 48°26' W 122°34'0 0.0
2015-Apr-22 23:32N 48°26' W 122°34'0 0.0
2015-Apr-22 22:32N 48°26' W 122°34'0 0.0
2015-Apr-22 21:24N 48°26' W 122°34'0 0.0
2015-Apr-22 20:27N 48°26' W 122°34'0 0.0
2015-Apr-22 19:34N 48°26' W 122°34'0 0.0
2015-Apr-22 18:10N 48°26' W 122°34'0 0.1
2015-Apr-22 17:26N 48°26' W 122°34'0 0.0
2015-Apr-22 16:34N 48°26' W 122°34'0 0.0
2015-Apr-22 15:33N 48°26' W 122°34'0 0.0
2015-Apr-22 14:32N 48°26' W 122°34'0 0.0
2015-Apr-22 13:22N 48°26' W 122°34'0 0.0
2015-Apr-22 12:24N 48°26' W 122°34'0 0.1
2015-Apr-22 11:33N 48°26' W 122°34'0 0.0
2015-Apr-22 10:33N 48°26' W 122°34'0 0.1
2015-Apr-22 09:32N 48°26' W 122°34'0 0.1
2015-Apr-22 08:33N 48°26' W 122°34'0 0.0
2015-Apr-22 07:33N 48°26' W 122°34'0 0.0
2015-Apr-22 06:33N 48°26' W 122°34'0 0.0
2015-Apr-22 05:33N 48°26' W 122°34'0 0.0
2015-Apr-22 04:34N 48°26' W 122°34'0 0.0
2015-Apr-22 03:26N 48°26' W 122°34'0 0.0
2015-Apr-22 02:32N 48°26' W 122°34'0 0.1
2015-Apr-22 01:24N 48°26' W 122°34'0 0.0
2015-Apr-22 00:23N 48°26' W 122°34'0 0.0
2015-Apr-21 23:26N 48°26' W 122°34'0 0.0
2015-Apr-21 22:29N 48°26' W 122°34'0 0.0
2015-Apr-21 21:32N 48°26' W 122°34'0 0.0
2015-Apr-21 20:34N 48°26' W 122°34'0 0.0
2015-Apr-21 19:11N 48°26' W 122°34'0 0.0
2015-Apr-21 18:31N 48°26' W 122°34'0 0.1
2015-Apr-21 17:31N 48°26' W 122°34'4 4.0
2015-Apr-21 16:25N 48°22' W 122°33'3 3.6
2015-Apr-21 15:31N 48°24' W 122°30'0 0.0
2015-Apr-21 14:33N 48°24' W 122°30'0 0.0
2015-Apr-21 13:33N 48°24' W 122°30'0 0.0
2015-Apr-21 12:33N 48°24' W 122°30'0 0.0
2015-Apr-21 11:33N 48°24' W 122°30'0 0.0
2015-Apr-21 10:33N 48°24' W 122°30'0 0.0
2015-Apr-21 09:33N 48°24' W 122°30'0 0.0
2015-Apr-21 08:33N 48°24' W 122°30'0 0.0
2015-Apr-21 07:33N 48°24' W 122°30'0 0.0
2015-Apr-21 06:33N 48°24' W 122°30'0 0.0
2015-Apr-21 05:33N 48°24' W 122°30'0 0.0
2015-Apr-21 04:33N 48°24' W 122°30'0 0.0
2015-Apr-21 03:33N 48°24' W 122°30'0 0.0
2015-Apr-21 02:33N 48°24' W 122°30'0 0.0
2015-Apr-21 01:33N 48°24' W 122°30'0 0.0
2015-Apr-21 00:33N 48°24' W 122°30'4 2.6
2015-Apr-20 23:10N 48°25' W 122°35'1 2.4
2015-Apr-20 22:33N 48°26' W 122°34'0 0.2
2015-Apr-20 21:33N 48°26' W 122°34'4 1.3
2015-Apr-20 18:28N 48°24' W 122°40'0 0.1
2015-Apr-20 17:33N 48°24' W 122°39'1 0.7
2015-Apr-20 16:32N 48°25' W 122°40'2 1.8
2015-Apr-20 15:33N 48°26' W 122°42'3 3.1
2015-Apr-20 14:33N 48°29' W 122°44'2 2.0
2015-Apr-20 13:33N 48°31' W 122°45'2 1.5
2015-Apr-20 12:33N 48°32' W 122°47'1 0.8
2015-Apr-20 11:33N 48°32' W 122°48'1 0.8
2015-Apr-20 10:33N 48°32' W 122°50'1 0.7
2015-Apr-20 09:33N 48°32' W 122°51'0 0.2
2015-Apr-20 08:33N 48°32' W 122°51'1 0.7
2015-Apr-20 07:33N 48°32' W 122°50'1 1.2
2015-Apr-20 06:33N 48°33' W 122°51'1 1.5
2015-Apr-20 05:32N 48°35' W 122°52'1 1.3
2015-Apr-20 04:33N 48°35' W 122°54'2 1.9
2015-Apr-20 03:33N 48°36' W 122°57'1 1.3
2015-Apr-20 02:33N 48°36' W 122°59'1 0.8
2015-Apr-20 01:33N 48°35' W 123°00'1 0.9
2015-Apr-20 00:32N 48°36' W 123°01'0 0.1
2015-Apr-19 23:33N 48°36' W 123°00'0 0.0
2015-Apr-19 22:33N 48°36' W 123°00'0 0.0
2015-Apr-19 21:33N 48°36' W 123°00'0 0.0
2015-Apr-19 20:33N 48°36' W 123°00'0 0.0
2015-Apr-19 19:33N 48°36' W 123°00'0 0.0
2015-Apr-19 18:33N 48°36' W 123°00'0 0.0
2015-Apr-19 17:33N 48°36' W 123°00'0 0.0
2015-Apr-19 16:33N 48°36' W 123°00'0 0.0
2015-Apr-19 15:33N 48°36' W 123°00'0 0.0
2015-Apr-19 14:33N 48°36' W 123°00'0 0.0
2015-Apr-19 13:33N 48°36' W 123°00'0 0.1
2015-Apr-19 12:33N 48°36' W 123°00'0 0.0
2015-Apr-19 11:33N 48°36' W 123°00'0 0.0
2015-Apr-19 10:33N 48°36' W 123°00'0 0.0
2015-Apr-19 09:33N 48°36' W 123°00'0 0.0
2015-Apr-19 08:33N 48°36' W 123°00'0 0.0
2015-Apr-19 07:33N 48°36' W 123°00'0 0.0
2015-Apr-19 06:33N 48°36' W 123°00'0 0.0
2015-Apr-19 05:33N 48°36' W 123°00'0 0.0
2015-Apr-19 04:33N 48°36' W 123°00'1 0.8
2015-Apr-19 03:33N 48°36' W 123°02'2 1.9
2015-Apr-19 02:33N 48°38' W 123°02'2 2.5
2015-Apr-19 01:33N 48°40' W 122°60'2 1.8
2015-Apr-19 00:33N 48°42' W 123°00'1 1.5
2015-Apr-18 23:33N 48°44' W 123°00'1 0.8
2015-Apr-18 22:33N 48°44' W 123°01'2 2.3
2015-Apr-18 21:33N 48°43' W 123°04'2 2.1
2015-Apr-18 20:31N 48°43' W 123°08'1 1.2
2015-Apr-18 19:33N 48°44' W 123°09'1 0.8
2015-Apr-18 18:33N 48°45' W 123°09'1 0.9
2015-Apr-18 17:33N 48°45' W 123°10'1 1.0
2015-Apr-18 16:33N 48°46' W 123°11'0 0.3
2015-Apr-18 15:32N 48°46' W 123°11'1 0.6
2015-Apr-18 14:33N 48°46' W 123°12'0 0.4
2015-Apr-18 13:33N 48°46' W 123°11'0 0.1
2015-Apr-18 12:32N 48°45' W 123°11'0 0.1
2015-Apr-18 11:33N 48°46' W 123°11'0 0.2
2015-Apr-18 10:33N 48°46' W 123°11'1 1.2
2015-Apr-18 09:33N 48°47' W 123°13'2 1.6
2015-Apr-18 08:33N 48°48' W 123°14'1 1.5
2015-Apr-18 07:33N 48°49' W 123°16'2 1.6
2015-Apr-18 06:15N 48°50' W 123°19'2 2.2
2015-Apr-18 05:30N 48°50' W 123°21'3 1.4
2015-Apr-18 03:33N 48°52' W 123°24'2 2.1
2015-Apr-18 02:31N 48°53' W 123°27'2 2.3
2015-Apr-18 01:28N 48°55' W 123°30'2 2.1
2015-Apr-18 00:33N 48°56' W 123°32'4 1.8
2015-Apr-17 22:07N 48°59' W 123°36'1 1.4
2015-Apr-17 21:33N 49°00' W 123°37'  
Track history (hours):
 
Tides and Currents Weather Stations Pressure Air Temp Water Temp Dewpoint Dewpoint Depression Visibility Wind Speed Wind Dir Waves Ship Positions

Swinomish

Owner: DUNLAP TOWING CO, LA CONNER, WA. More information available from US FCC via Universal Licensing System and Coast Guard Vessel Documentation Center.

Last reported at 2015-Apr-27 21:28 UTC. Time now 2015-Apr-27 22:11 UTC.
Position N 48°08' W 122°52'.

Length 15 m; draft 3.5 m.

Type: Tug. MMSI: 366972050.

Date/timePositionNaut miles runAvg speedWind from/ knotsBaromVisibWave heightAir tempDewpointWater temp
2015-Apr-27 21:28N 48°08' W 122°52'3 2.2
2015-Apr-27 20:13N 48°09' W 122°48'3 1.6
2015-Apr-27 18:29N 48°07' W 122°44'1 0.5
2015-Apr-27 15:32N 48°06' W 122°45'2 1.6
2015-Apr-27 14:28N 48°07' W 122°43'6 3.3
2015-Apr-27 12:33N 48°01' W 122°39'4 4.5
2015-Apr-27 11:33N 47°58' W 122°36'4 3.5
2015-Apr-27 10:33N 47°55' W 122°32'3 2.9
2015-Apr-27 09:33N 47°54' W 122°28'3 2.7
2015-Apr-27 08:33N 47°52' W 122°25'2 2.3
2015-Apr-27 07:33N 47°51' W 122°22'1 1.4
2015-Apr-27 06:33N 47°52' W 122°21'1 1.3
2015-Apr-27 05:33N 47°53' W 122°20'1 1.4
2015-Apr-27 04:33N 47°55' W 122°21'1 1.5
2015-Apr-27 03:33N 47°56' W 122°20'2 1.6
2015-Apr-27 02:33N 47°58' W 122°19'2 1.7
2015-Apr-27 01:33N 47°58' W 122°17'2 1.5
2015-Apr-27 00:33N 47°59' W 122°14'1 1.0
2015-Apr-26 23:33N 47°59' W 122°13'0 0.0
2015-Apr-26 22:33N 47°59' W 122°13'0 0.2
2015-Apr-26 21:34N 47°59' W 122°13'0 0.0
2015-Apr-26 20:32N 47°59' W 122°13'0 0.3
2015-Apr-26 19:33N 47°59' W 122°14'1 1.0
2015-Apr-26 18:33N 47°58' W 122°15'1 1.1
2015-Apr-26 17:33N 47°58' W 122°16'1 1.2
2015-Apr-26 16:33N 47°59' W 122°18'1 1.2
2015-Apr-26 15:31N 47°60' W 122°20'1 1.4
2015-Apr-26 14:33N 48°01' W 122°21'1 1.3
2015-Apr-26 13:32N 48°02' W 122°22'3 1.4
2015-Apr-26 11:33N 48°04' W 122°25'2 1.6
2015-Apr-26 10:26N 48°05' W 122°27'11 1.6
2015-Apr-26 03:22N 48°15' W 122°34'1 1.8
2015-Apr-26 02:33N 48°16' W 122°32'2 1.8
2015-Apr-26 01:33N 48°17' W 122°31'2 2.0
2015-Apr-26 00:33N 48°19' W 122°31'4 3.2
2015-Apr-25 23:14N 48°23' W 122°34'2 1.8
2015-Apr-25 22:20N 48°24' W 122°35'2 1.7
2015-Apr-25 21:23N 48°26' W 122°34'0 0.3
2015-Apr-25 20:31N 48°26' W 122°34'9 9.4
2015-Apr-25 19:32N 48°17' W 122°31'10 9.3
2015-Apr-25 18:27N 48°07' W 122°30'1110.4
2015-Apr-25 17:24N 48°00' W 122°17'3 3.4
2015-Apr-25 16:34N 47°59' W 122°14'3 2.9
2015-Apr-25 15:33N 47°58' W 122°18'3 2.9
2015-Apr-25 14:33N 47°56' W 122°20'3 2.8
2015-Apr-25 13:33N 47°53' W 122°22'3 3.5
2015-Apr-25 12:34N 47°50' W 122°24'4 4.3
2015-Apr-25 11:33N 47°46' W 122°25'4 4.0
2015-Apr-25 10:33N 47°42' W 122°27'3 3.2
2015-Apr-25 09:33N 47°39' W 122°29'4 4.2
2015-Apr-25 08:34N 47°35' W 122°28'4 3.8
2015-Apr-25 07:33N 47°31' W 122°29'4 3.9
2015-Apr-25 06:33N 47°28' W 122°31'4 4.0
2015-Apr-25 05:33N 47°24' W 122°32'3 3.5
2015-Apr-25 04:33N 47°20' W 122°32'4 3.9
2015-Apr-25 03:33N 47°18' W 122°27'2 1.6
2015-Apr-25 02:32N 47°17' W 122°25'0 0.0
2015-Apr-25 01:33N 47°17' W 122°25'2 2.1
2015-Apr-25 00:34N 47°18' W 122°28'3 2.7
2015-Apr-24 23:33N 47°19' W 122°32'3 3.2
2015-Apr-24 22:34N 47°16' W 122°33'5 4.6
2015-Apr-24 21:30N 47°12' W 122°37'7 3.3
2015-Apr-24 19:21N 47°10' W 122°47'8 1.1
2015-Apr-24 12:21N 47°04' W 122°55'1 0.4
2015-Apr-24 10:09N 47°05' W 122°55'4 6.4
2015-Apr-24 09:33N 47°09' W 122°55'1 0.4
2015-Apr-24 06:16N 47°10' W 122°55'14 8.1
2015-Apr-24 04:33N 47°14' W 122°35'1110.9
2015-Apr-24 03:33N 47°25' W 122°32'1010.1
2015-Apr-24 02:34N 47°34' W 122°28'1110.7
2015-Apr-24 01:34N 47°45' W 122°25'1010.4
2015-Apr-24 00:33N 47°55' W 122°21'9 9.1
2015-Apr-23 23:31N 48°04' W 122°26'13 9.2
2015-Apr-23 22:04N 48°17' W 122°31'910.4
2015-Apr-23 21:12N 48°26' W 122°35'1 0.8
2015-Apr-23 20:30N 48°26' W 122°34'0 0.2
2015-Apr-23 18:33N 48°26' W 122°34'0 0.4
2015-Apr-23 17:34N 48°26' W 122°34'0 0.0
2015-Apr-23 16:28N 48°26' W 122°34'0 0.0
2015-Apr-23 15:30N 48°26' W 122°34'0 0.0
2015-Apr-23 14:27N 48°26' W 122°34'0 0.0
2015-Apr-23 13:33N 48°26' W 122°34'0 0.0
2015-Apr-23 12:34N 48°26' W 122°34'0 0.1
2015-Apr-23 11:29N 48°26' W 122°34'0 0.1
2015-Apr-23 10:33N 48°26' W 122°34'0 0.0
2015-Apr-23 09:22N 48°26' W 122°34'0 0.0
2015-Apr-23 08:33N 48°26' W 122°34'0 0.2
2015-Apr-23 07:31N 48°26' W 122°34'4 2.1
2015-Apr-23 05:32N 48°22' W 122°32'4 1.1
2015-Apr-23 01:32N 48°26' W 122°34'0 0.0
2015-Apr-23 00:19N 48°26' W 122°34'0 0.0
2015-Apr-22 23:32N 48°26' W 122°34'0 0.0
2015-Apr-22 22:32N 48°26' W 122°34'0 0.0
2015-Apr-22 21:24N 48°26' W 122°34'0 0.0
2015-Apr-22 20:27N 48°26' W 122°34'0 0.0
2015-Apr-22 19:34N 48°26' W 122°34'0 0.0
2015-Apr-22 18:10N 48°26' W 122°34'0 0.1
2015-Apr-22 17:26N 48°26' W 122°34'0 0.0
2015-Apr-22 16:34N 48°26' W 122°34'0 0.0
2015-Apr-22 15:33N 48°26' W 122°34'0 0.0
2015-Apr-22 14:32N 48°26' W 122°34'0 0.0
2015-Apr-22 13:22N 48°26' W 122°34'0 0.0
2015-Apr-22 12:24N 48°26' W 122°34'0 0.1
2015-Apr-22 11:33N 48°26' W 122°34'0 0.0
2015-Apr-22 10:33N 48°26' W 122°34'0 0.1
2015-Apr-22 09:32N 48°26' W 122°34'0 0.1
2015-Apr-22 08:33N 48°26' W 122°34'0 0.0
2015-Apr-22 07:33N 48°26' W 122°34'0 0.0
2015-Apr-22 06:33N 48°26' W 122°34'0 0.0
2015-Apr-22 05:33N 48°26' W 122°34'0 0.0
2015-Apr-22 04:34N 48°26' W 122°34'0 0.0
2015-Apr-22 03:26N 48°26' W 122°34'0 0.0
2015-Apr-22 02:32N 48°26' W 122°34'0 0.1
2015-Apr-22 01:24N 48°26' W 122°34'0 0.0
2015-Apr-22 00:23N 48°26' W 122°34'0 0.0
2015-Apr-21 23:26N 48°26' W 122°34'0 0.0
2015-Apr-21 22:29N 48°26' W 122°34'0 0.0
2015-Apr-21 21:32N 48°26' W 122°34'0 0.0
2015-Apr-21 20:34N 48°26' W 122°34'0 0.0
2015-Apr-21 19:11N 48°26' W 122°34'0 0.0
2015-Apr-21 18:31N 48°26' W 122°34'0 0.1
2015-Apr-21 17:31N 48°26' W 122°34'4 4.0
2015-Apr-21 16:25N 48°22' W 122°33'3 3.6
2015-Apr-21 15:31N 48°24' W 122°30'0 0.0
2015-Apr-21 14:33N 48°24' W 122°30'0 0.0
2015-Apr-21 13:33N 48°24' W 122°30'0 0.0
2015-Apr-21 12:33N 48°24' W 122°30'0 0.0
2015-Apr-21 11:33N 48°24' W 122°30'0 0.0
2015-Apr-21 10:33N 48°24' W 122°30'0 0.0
2015-Apr-21 09:33N 48°24' W 122°30'0 0.0
2015-Apr-21 08:33N 48°24' W 122°30'0 0.0
2015-Apr-21 07:33N 48°24' W 122°30'0 0.0
2015-Apr-21 06:33N 48°24' W 122°30'0 0.0
2015-Apr-21 05:33N 48°24' W 122°30'0 0.0
2015-Apr-21 04:33N 48°24' W 122°30'0 0.0
2015-Apr-21 03:33N 48°24' W 122°30'0 0.0
2015-Apr-21 02:33N 48°24' W 122°30'0 0.0
2015-Apr-21 01:33N 48°24' W 122°30'0 0.0
2015-Apr-21 00:33N 48°24' W 122°30'4 2.6
2015-Apr-20 23:10N 48°25' W 122°35'1 2.4
2015-Apr-20 22:33N 48°26' W 122°34'0 0.2
2015-Apr-20 21:33N 48°26' W 122°34'4 1.3
2015-Apr-20 18:28N 48°24' W 122°40'0 0.1
2015-Apr-20 17:33N 48°24' W 122°39'1 0.7
2015-Apr-20 16:32N 48°25' W 122°40'2 1.8
2015-Apr-20 15:33N 48°26' W 122°42'3 3.1
2015-Apr-20 14:33N 48°29' W 122°44'2 2.0
2015-Apr-20 13:33N 48°31' W 122°45'2 1.5
2015-Apr-20 12:33N 48°32' W 122°47'1 0.8
2015-Apr-20 11:33N 48°32' W 122°48'1 0.8
2015-Apr-20 10:33N 48°32' W 122°50'1 0.7
2015-Apr-20 09:33N 48°32' W 122°51'0 0.2
2015-Apr-20 08:33N 48°32' W 122°51'1 0.7
2015-Apr-20 07:33N 48°32' W 122°50'1 1.2
2015-Apr-20 06:33N 48°33' W 122°51'1 1.5
2015-Apr-20 05:32N 48°35' W 122°52'1 1.3
2015-Apr-20 04:33N 48°35' W 122°54'2 1.9
2015-Apr-20 03:33N 48°36' W 122°57'1 1.3
2015-Apr-20 02:33N 48°36' W 122°59'1 0.8
2015-Apr-20 01:33N 48°35' W 123°00'1 0.9
2015-Apr-20 00:32N 48°36' W 123°01'0 0.1
2015-Apr-19 23:33N 48°36' W 123°00'0 0.0
2015-Apr-19 22:33N 48°36' W 123°00'0 0.0
2015-Apr-19 21:33N 48°36' W 123°00'0 0.0
2015-Apr-19 20:33N 48°36' W 123°00'0 0.0
2015-Apr-19 19:33N 48°36' W 123°00'0 0.0
2015-Apr-19 18:33N 48°36' W 123°00'0 0.0
2015-Apr-19 17:33N 48°36' W 123°00'0 0.0
2015-Apr-19 16:33N 48°36' W 123°00'0 0.0
2015-Apr-19 15:33N 48°36' W 123°00'0 0.0
2015-Apr-19 14:33N 48°36' W 123°00'0 0.0
2015-Apr-19 13:33N 48°36' W 123°00'0 0.1
2015-Apr-19 12:33N 48°36' W 123°00'0 0.0
2015-Apr-19 11:33N 48°36' W 123°00'0 0.0
2015-Apr-19 10:33N 48°36' W 123°00'0 0.0
2015-Apr-19 09:33N 48°36' W 123°00'0 0.0
2015-Apr-19 08:33N 48°36' W 123°00'0 0.0
2015-Apr-19 07:33N 48°36' W 123°00'0 0.0
2015-Apr-19 06:33N 48°36' W 123°00'0 0.0
2015-Apr-19 05:33N 48°36' W 123°00'0 0.0
2015-Apr-19 04:33N 48°36' W 123°00'1 0.8
2015-Apr-19 03:33N 48°36' W 123°02'2 1.9
2015-Apr-19 02:33N 48°38' W 123°02'2 2.5
2015-Apr-19 01:33N 48°40' W 122°60'2 1.8
2015-Apr-19 00:33N 48°42' W 123°00'1 1.5
2015-Apr-18 23:33N 48°44' W 123°00'1 0.8
2015-Apr-18 22:33N 48°44' W 123°01'2 2.3
2015-Apr-18 21:33N 48°43' W 123°04'2 2.1
2015-Apr-18 20:31N 48°43' W 123°08'1 1.2
2015-Apr-18 19:33N 48°44' W 123°09'1 0.8
2015-Apr-18 18:33N 48°45' W 123°09'1 0.9
2015-Apr-18 17:33N 48°45' W 123°10'1 1.0
2015-Apr-18 16:33N 48°46' W 123°11'0 0.3
2015-Apr-18 15:32N 48°46' W 123°11'1 0.6
2015-Apr-18 14:33N 48°46' W 123°12'0 0.4
2015-Apr-18 13:33N 48°46' W 123°11'0 0.1
2015-Apr-18 12:32N 48°45' W 123°11'0 0.1
2015-Apr-18 11:33N 48°46' W 123°11'0 0.2
2015-Apr-18 10:33N 48°46' W 123°11'1 1.2
2015-Apr-18 09:33N 48°47' W 123°13'2 1.6
2015-Apr-18 08:33N 48°48' W 123°14'1 1.5
2015-Apr-18 07:33N 48°49' W 123°16'2 1.6
2015-Apr-18 06:15N 48°50' W 123°19'2 2.2
2015-Apr-18 05:30N 48°50' W 123°21'3 1.4
2015-Apr-18 03:33N 48°52' W 123°24'2 2.1
2015-Apr-18 02:31N 48°53' W 123°27'2 2.3
2015-Apr-18 01:28N 48°55' W 123°30'2 2.1
2015-Apr-18 00:33N 48°56' W 123°32'4 1.8
2015-Apr-17 22:07N 48°59' W 123°36'1 1.4
2015-Apr-17 21:33N 49°00' W 123°37'  

Dump ship's entire track history